sensor_id;sensor_type;location;lat;lon;timestamp;temperature;humidity
28654;DHT22;24320;56.980;24.336;2022-11-15T00:01:41;3.70;99.90
28654;DHT22;24320;56.980;24.336;2022-11-15T00:04:09;3.70;99.90
28654;DHT22;24320;56.980;24.336;2022-11-15T00:06:36;3.80;99.90
28654;DHT22;24320;56.980;24.336;2022-11-15T00:09:04;3.70;99.90
28654;DHT22;24320;56.980;24.336;2022-11-15T00:11:30;3.70;99.90
28654;DHT22;24320;56.980;24.336;2022-11-15T00:13:57;3.70;99.90
28654;DHT22;24320;56.980;24.336;2022-11-15T00:16:24;3.80;99.90
28654;DHT22;24320;56.980;24.336;2022-11-15T00:18:51;3.80;99.90
28654;DHT22;24320;56.980;24.336;2022-11-15T00:21:18;3.80;99.90
28654;DHT22;24320;56.980;24.336;2022-11-15T00:23:45;3.80;99.90
28654;DHT22;24320;56.980;24.336;2022-11-15T00:26:14;3.70;99.90
28654;DHT22;24320;56.980;24.336;2022-11-15T00:28:41;3.80;99.90
28654;DHT22;24320;56.980;24.336;2022-11-15T00:31:12;3.80;99.90
28654;DHT22;24320;56.980;24.336;2022-11-15T00:33:39;3.80;99.90
28654;DHT22;24320;56.980;24.336;2022-11-15T00:36:08;3.80;99.90
28654;DHT22;24320;56.980;24.336;2022-11-15T00:38:39;3.80;99.90
28654;DHT22;24320;56.980;24.336;2022-11-15T00:41:07;3.80;99.90
28654;DHT22;24320;56.980;24.336;2022-11-15T00:43:36;3.80;99.90
28654;DHT22;24320;56.980;24.336;2022-11-15T00:46:03;3.90;99.90
28654;DHT22;24320;56.980;24.336;2022-11-15T00:48:30;4.00;99.90
28654;DHT22;24320;56.980;24.336;2022-11-15T00:50:58;3.90;99.90
28654;DHT22;24320;56.980;24.336;2022-11-15T00:53:25;4.00;99.90
28654;DHT22;24320;56.980;24.336;2022-11-15T00:55:52;3.90;99.90
28654;DHT22;24320;56.980;24.336;2022-11-15T00:58:19;3.90;99.90
28654;DHT22;24320;56.980;24.336;2022-11-15T01:00:46;3.90;99.90
28654;DHT22;24320;56.980;24.336;2022-11-15T01:03:13;3.90;99.90
28654;DHT22;24320;56.980;24.336;2022-11-15T01:05:40;3.90;99.90
28654;DHT22;24320;56.980;24.336;2022-11-15T01:08:15;3.90;99.90
28654;DHT22;24320;56.980;24.336;2022-11-15T01:10:42;3.90;99.90
28654;DHT22;24320;56.980;24.336;2022-11-15T01:13:09;3.90;99.90
28654;DHT22;24320;56.980;24.336;2022-11-15T01:15:40;3.90;99.90
28654;DHT22;24320;56.980;24.336;2022-11-15T01:18:07;3.90;99.90
28654;DHT22;24320;56.980;24.336;2022-11-15T01:20:34;3.90;99.90
28654;DHT22;24320;56.980;24.336;2022-11-15T01:23:01;3.90;99.90
28654;DHT22;24320;56.980;24.336;2022-11-15T01:25:28;3.90;99.90
28654;DHT22;24320;56.980;24.336;2022-11-15T01:27:55;4.00;99.90
28654;DHT22;24320;56.980;24.336;2022-11-15T01:30:22;4.00;99.90
28654;DHT22;24320;56.980;24.336;2022-11-15T01:32:49;4.00;99.90
28654;DHT22;24320;56.980;24.336;2022-11-15T01:35:16;4.00;99.90
28654;DHT22;24320;56.980;24.336;2022-11-15T01:37:42;4.00;99.90
28654;DHT22;24320;56.980;24.336;2022-11-15T01:40:10;4.00;99.90
28654;DHT22;24320;56.980;24.336;2022-11-15T01:42:37;4.00;99.90
28654;DHT22;24320;56.980;24.336;2022-11-15T01:45:04;4.00;99.90
28654;DHT22;24320;56.980;24.336;2022-11-15T01:47:35;4.00;99.90
28654;DHT22;24320;56.980;24.336;2022-11-15T01:50:10;4.00;99.90
28654;DHT22;24320;56.980;24.336;2022-11-15T01:52:38;4.00;99.90
28654;DHT22;24320;56.980;24.336;2022-11-15T01:55:24;4.00;99.90
28654;DHT22;24320;56.980;24.336;2022-11-15T01:57:56;4.00;99.90
28654;DHT22;24320;56.980;24.336;2022-11-15T02:00:23;4.00;99.90
28654;DHT22;24320;56.980;24.336;2022-11-15T02:02:51;4.00;99.90
28654;DHT22;24320;56.980;24.336;2022-11-15T02:05:18;4.00;99.90
28654;DHT22;24320;56.980;24.336;2022-11-15T02:07:45;4.00;99.90
28654;DHT22;24320;56.980;24.336;2022-11-15T02:10:21;4.00;99.90
28654;DHT22;24320;56.980;24.336;2022-11-15T02:12:49;3.90;99.90
28654;DHT22;24320;56.980;24.336;2022-11-15T02:15:17;3.90;99.90
28654;DHT22;24320;56.980;24.336;2022-11-15T02:18:06;4.00;99.90
28654;DHT22;24320;56.980;24.336;2022-11-15T02:38:08;4.00;99.90
28654;DHT22;24320;56.980;24.336;2022-11-15T02:40:49;3.90;99.90
28654;DHT22;24320;56.980;24.336;2022-11-15T02:43:36;3.90;99.90
28654;DHT22;24320;56.980;24.336;2022-11-15T02:46:32;3.90;99.90
28654;DHT22;24320;56.980;24.336;2022-11-15T02:49:19;3.90;99.90
28654;DHT22;24320;56.980;24.336;2022-11-15T02:51:49;3.90;99.90
28654;DHT22;24320;56.980;24.336;2022-11-15T02:54:35;3.90;99.90
28654;DHT22;24320;56.980;24.336;2022-11-15T02:57:11;4.00;99.90
28654;DHT22;24320;56.980;24.336;2022-11-15T03:00:01;4.00;99.90
28654;DHT22;24320;56.980;24.336;2022-11-15T03:05:17;4.00;99.90
28654;DHT22;24320;56.980;24.336;2022-11-15T03:10:48;4.00;99.90
28654;DHT22;24320;56.980;24.336;2022-11-15T03:13:26;4.00;99.90
28654;DHT22;24320;56.980;24.336;2022-11-15T03:15:56;4.00;99.90
28654;DHT22;24320;56.980;24.336;2022-11-15T03:18:35;4.00;99.90
28654;DHT22;24320;56.980;24.336;2022-11-15T03:21:06;4.00;99.90
28654;DHT22;24320;56.980;24.336;2022-11-15T03:23:36;4.00;99.90
28654;DHT22;24320;56.980;24.336;2022-11-15T03:26:07;4.00;99.90
28654;DHT22;24320;56.980;24.336;2022-11-15T03:29:07;4.10;99.90
28654;DHT22;24320;56.980;24.336;2022-11-15T03:31:38;4.10;99.90
28654;DHT22;24320;56.980;24.336;2022-11-15T03:34:22;4.00;99.90
28654;DHT22;24320;56.980;24.336;2022-11-15T03:36:52;4.00;99.90
28654;DHT22;24320;56.980;24.336;2022-11-15T03:39:20;4.00;99.90
28654;DHT22;24320;56.980;24.336;2022-11-15T03:41:49;4.10;99.90
28654;DHT22;24320;56.980;24.336;2022-11-15T03:47:16;4.10;99.90
28654;DHT22;24320;56.980;24.336;2022-11-15T03:50:04;4.00;99.90
28654;DHT22;24320;56.980;24.336;2022-11-15T03:52:34;4.00;99.90
28654;DHT22;24320;56.980;24.336;2022-11-15T03:55:03;4.00;99.90
28654;DHT22;24320;56.980;24.336;2022-11-15T03:57:30;4.00;99.90
28654;DHT22;24320;56.980;24.336;2022-11-15T03:59:57;4.00;99.90
28654;DHT22;24320;56.980;24.336;2022-11-15T04:02:24;4.00;99.90
28654;DHT22;24320;56.980;24.336;2022-11-15T04:04:51;4.00;99.90
28654;DHT22;24320;56.980;24.336;2022-11-15T04:07:18;4.00;99.90
28654;DHT22;24320;56.980;24.336;2022-11-15T04:09:45;4.00;99.90
28654;DHT22;24320;56.980;24.336;2022-11-15T04:12:37;4.10;99.90
28654;DHT22;24320;56.980;24.336;2022-11-15T08:17:25;5.60;99.90
28654;DHT22;24320;56.980;24.336;2022-11-15T08:19:52;5.70;99.90
28654;DHT22;24320;56.980;24.336;2022-11-15T08:22:19;5.70;99.90
28654;DHT22;24320;56.980;24.336;2022-11-15T08:24:46;5.70;99.90
28654;DHT22;24320;56.980;24.336;2022-11-15T08:27:13;5.70;99.90
28654;DHT22;24320;56.980;24.336;2022-11-15T08:29:44;5.60;99.90
28654;DHT22;24320;56.980;24.336;2022-11-15T08:32:11;5.60;99.90
28654;DHT22;24320;56.980;24.336;2022-11-15T08:34:38;5.70;99.90
28654;DHT22;24320;56.980;24.336;2022-11-15T08:37:05;5.70;99.90
28654;DHT22;24320;56.980;24.336;2022-11-15T08:39:32;5.70;99.90
28654;DHT22;24320;56.980;24.336;2022-11-15T08:41:59;5.80;99.90
28654;DHT22;24320;56.980;24.336;2022-11-15T08:44:26;5.80;99.90
28654;DHT22;24320;56.980;24.336;2022-11-15T08:46:53;5.80;99.90
28654;DHT22;24320;56.980;24.336;2022-11-15T08:49:20;5.90;99.90
28654;DHT22;24320;56.980;24.336;2022-11-15T08:51:47;5.90;99.90
28654;DHT22;24320;56.980;24.336;2022-11-15T08:54:14;5.80;99.90
28654;DHT22;24320;56.980;24.336;2022-11-15T08:56:41;5.90;99.90
28654;DHT22;24320;56.980;24.336;2022-11-15T08:59:08;5.90;99.90
28654;DHT22;24320;56.980;24.336;2022-11-15T09:01:35;5.80;99.90
28654;DHT22;24320;56.980;24.336;2022-11-15T09:04:03;5.90;99.90
28654;DHT22;24320;56.980;24.336;2022-11-15T09:06:30;5.90;99.90
28654;DHT22;24320;56.980;24.336;2022-11-15T09:08:57;5.90;99.90
28654;DHT22;24320;56.980;24.336;2022-11-15T09:11:25;6.00;99.90
28654;DHT22;24320;56.980;24.336;2022-11-15T09:13:53;6.00;99.90
28654;DHT22;24320;56.980;24.336;2022-11-15T09:16:20;6.00;99.90
28654;DHT22;24320;56.980;24.336;2022-11-15T09:18:47;6.00;99.90
28654;DHT22;24320;56.980;24.336;2022-11-15T09:21:14;6.00;99.90
28654;DHT22;24320;56.980;24.336;2022-11-15T09:23:41;6.10;99.90
28654;DHT22;24320;56.980;24.336;2022-11-15T09:26:08;6.20;99.90
28654;DHT22;24320;56.980;24.336;2022-11-15T09:28:36;6.10;99.90
28654;DHT22;24320;56.980;24.336;2022-11-15T09:34:27;6.20;99.90
28654;DHT22;24320;56.980;24.336;2022-11-15T09:36:54;6.30;99.90
28654;DHT22;24320;56.980;24.336;2022-11-15T09:39:21;6.30;99.90
28654;DHT22;24320;56.980;24.336;2022-11-15T09:41:50;6.30;99.90
28654;DHT22;24320;56.980;24.336;2022-11-15T09:44:52;6.40;99.90
28654;DHT22;24320;56.980;24.336;2022-11-15T09:47:50;6.40;99.90
28654;DHT22;24320;56.980;24.336;2022-11-15T09:50:48;6.50;99.90
28654;DHT22;24320;56.980;24.336;2022-11-15T09:53:41;6.50;99.90
28654;DHT22;24320;56.980;24.336;2022-11-15T09:56:31;6.60;99.90
28654;DHT22;24320;56.980;24.336;2022-11-15T10:04:14;6.80;99.90
28654;DHT22;24320;56.980;24.336;2022-11-15T10:06:52;6.90;99.90
28654;DHT22;24320;56.980;24.336;2022-11-15T10:09:36;7.00;99.90
28654;DHT22;24320;56.980;24.336;2022-11-15T10:12:08;7.00;99.90
28654;DHT22;24320;56.980;24.336;2022-11-15T10:14:36;7.10;99.90
28654;DHT22;24320;56.980;24.336;2022-11-15T10:22:41;7.40;99.90
28654;DHT22;24320;56.980;24.336;2022-11-15T10:25:40;7.50;99.90
28654;DHT22;24320;56.980;24.336;2022-11-15T10:28:27;7.60;99.90
28654;DHT22;24320;56.980;24.336;2022-11-15T10:30:58;7.70;99.90
28654;DHT22;24320;56.980;24.336;2022-11-15T10:44:22;7.90;99.90
28654;DHT22;24320;56.980;24.336;2022-11-15T10:49:24;8.00;99.90
28654;DHT22;24320;56.980;24.336;2022-11-15T10:54:55;8.10;99.90
28654;DHT22;24320;56.980;24.336;2022-11-15T10:57:27;8.10;99.90
28654;DHT22;24320;56.980;24.336;2022-11-15T11:00:07;8.20;99.90
28654;DHT22;24320;56.980;24.336;2022-11-15T11:05:45;8.30;99.90
28654;DHT22;24320;56.980;24.336;2022-11-15T11:10:59;8.30;99.90
28654;DHT22;24320;56.980;24.336;2022-11-15T11:13:37;8.30;99.90
28654;DHT22;24320;56.980;24.336;2022-11-15T11:19:10;8.60;99.90
28654;DHT22;24320;56.980;24.336;2022-11-15T11:24:32;8.60;99.90
28654;DHT22;24320;56.980;24.336;2022-11-15T11:27:11;8.60;99.90
28654;DHT22;24320;56.980;24.336;2022-11-15T11:30:00;8.50;99.90
28654;DHT22;24320;56.980;24.336;2022-11-15T11:47:17;7.90;99.90
28654;DHT22;24320;56.980;24.336;2022-11-15T11:49:43;7.80;99.90
28654;DHT22;24320;56.980;24.336;2022-11-15T11:54:57;7.70;99.90
28654;DHT22;24320;56.980;24.336;2022-11-15T11:57:28;7.70;99.90
28654;DHT22;24320;56.980;24.336;2022-11-15T12:00:12;7.60;99.90
28654;DHT22;24320;56.980;24.336;2022-11-15T12:05:39;7.60;99.90
28654;DHT22;24320;56.980;24.336;2022-11-15T12:08:40;7.60;99.90
28654;DHT22;24320;56.980;24.336;2022-11-15T12:13:49;7.50;99.90
28654;DHT22;24320;56.980;24.336;2022-11-15T12:16:23;7.60;99.90
28654;DHT22;24320;56.980;24.336;2022-11-15T12:18:54;7.50;99.90
28654;DHT22;24320;56.980;24.336;2022-11-15T12:24:00;7.50;99.90
28654;DHT22;24320;56.980;24.336;2022-11-15T12:26:45;7.50;99.90
28654;DHT22;24320;56.980;24.336;2022-11-15T12:29:26;7.50;99.90
28654;DHT22;24320;56.980;24.336;2022-11-15T12:31:56;7.50;99.90
28654;DHT22;24320;56.980;24.336;2022-11-15T12:34:46;7.40;99.90
28654;DHT22;24320;56.980;24.336;2022-11-15T12:45:37;7.20;99.90
28654;DHT22;24320;56.980;24.336;2022-11-15T12:50:52;7.10;99.90
28654;DHT22;24320;56.980;24.336;2022-11-15T13:04:25;6.90;99.90
28654;DHT22;24320;56.980;24.336;2022-11-15T13:17:42;6.70;99.90
28654;DHT22;24320;56.980;24.336;2022-11-15T13:25:53;6.50;99.90
28654;DHT22;24320;56.980;24.336;2022-11-15T13:31:01;6.40;99.90
28654;DHT22;24320;56.980;24.336;2022-11-15T13:33:37;6.30;99.90
28654;DHT22;24320;56.980;24.336;2022-11-15T13:36:08;6.30;99.90
28654;DHT22;24320;56.980;24.336;2022-11-15T13:38:41;6.30;99.90
28654;DHT22;24320;56.980;24.336;2022-11-15T13:41:23;6.30;99.90
28654;DHT22;24320;56.980;24.336;2022-11-15T13:43:52;6.30;99.90
28654;DHT22;24320;56.980;24.336;2022-11-15T13:46:21;6.20;99.90
28654;DHT22;24320;56.980;24.336;2022-11-15T13:51:39;6.10;99.90
28654;DHT22;24320;56.980;24.336;2022-11-15T13:56:46;6.00;99.90
28654;DHT22;24320;56.980;24.336;2022-11-15T13:59:44;6.00;99.90
28654;DHT22;24320;56.980;24.336;2022-11-15T14:02:15;6.00;99.90
28654;DHT22;24320;56.980;24.336;2022-11-15T14:04:55;5.90;99.90
28654;DHT22;24320;56.980;24.336;2022-11-15T14:07:24;6.00;99.90
28654;DHT22;24320;56.980;24.336;2022-11-15T14:09:52;6.00;99.90
28654;DHT22;24320;56.980;24.336;2022-11-15T14:12:34;6.00;99.90
28654;DHT22;24320;56.980;24.336;2022-11-15T14:17:54;5.90;99.90
28654;DHT22;24320;56.980;24.336;2022-11-15T14:20:33;5.90;99.90
28654;DHT22;24320;56.980;24.336;2022-11-15T14:23:03;5.90;99.90
28654;DHT22;24320;56.980;24.336;2022-11-15T14:25:32;5.90;99.90
28654;DHT22;24320;56.980;24.336;2022-11-15T14:28:11;5.80;99.90
28654;DHT22;24320;56.980;24.336;2022-11-15T14:30:39;5.80;99.90
28654;DHT22;24320;56.980;24.336;2022-11-15T14:33:36;5.80;99.90
28654;DHT22;24320;56.980;24.336;2022-11-15T14:36:14;5.80;99.90
28654;DHT22;24320;56.980;24.336;2022-11-15T14:38:42;5.80;99.90
28654;DHT22;24320;56.980;24.336;2022-11-15T14:41:18;5.80;99.90
28654;DHT22;24320;56.980;24.336;2022-11-15T14:43:46;5.80;99.90
28654;DHT22;24320;56.980;24.336;2022-11-15T14:46:13;5.80;99.90
28654;DHT22;24320;56.980;24.336;2022-11-15T14:48:40;5.80;99.90
28654;DHT22;24320;56.980;24.336;2022-11-15T14:53:53;5.80;99.90
28654;DHT22;24320;56.980;24.336;2022-11-15T14:56:21;5.80;99.90
28654;DHT22;24320;56.980;24.336;2022-11-15T14:58:48;5.80;99.90
28654;DHT22;24320;56.980;24.336;2022-11-15T15:01:24;5.80;99.90
28654;DHT22;24320;56.980;24.336;2022-11-15T15:03:52;5.80;99.90
28654;DHT22;24320;56.980;24.336;2022-11-15T15:06:22;5.80;99.90
28654;DHT22;24320;56.980;24.336;2022-11-15T15:08:49;5.90;99.90
28654;DHT22;24320;56.980;24.336;2022-11-15T15:11:27;5.90;99.90
28654;DHT22;24320;56.980;24.336;2022-11-15T15:13:55;5.90;99.90
28654;DHT22;24320;56.980;24.336;2022-11-15T15:16:24;5.90;99.90
28654;DHT22;24320;56.980;24.336;2022-11-15T15:18:51;5.80;99.90
28654;DHT22;24320;56.980;24.336;2022-11-15T15:21:26;5.80;99.90
28654;DHT22;24320;56.980;24.336;2022-11-15T15:24:01;5.90;99.90
28654;DHT22;24320;56.980;24.336;2022-11-15T15:26:28;5.80;99.90
28654;DHT22;24320;56.980;24.336;2022-11-15T15:28:55;5.70;99.90
28654;DHT22;24320;56.980;24.336;2022-11-15T15:31:22;5.60;99.90
28654;DHT22;24320;56.980;24.336;2022-11-15T15:33:49;5.60;99.90
28654;DHT22;24320;56.980;24.336;2022-11-15T15:36:18;5.50;99.90
28654;DHT22;24320;56.980;24.336;2022-11-15T15:38:45;5.50;99.90
28654;DHT22;24320;56.980;24.336;2022-11-15T15:41:16;5.40;99.90
28654;DHT22;24320;56.980;24.336;2022-11-15T15:43:44;5.40;99.90
28654;DHT22;24320;56.980;24.336;2022-11-15T15:46:13;5.40;99.90
28654;DHT22;24320;56.980;24.336;2022-11-15T15:48:41;5.40;99.90
28654;DHT22;24320;56.980;24.336;2022-11-15T15:51:08;5.40;99.90
28654;DHT22;24320;56.980;24.336;2022-11-15T15:53:45;5.50;99.90
28654;DHT22;24320;56.980;24.336;2022-11-15T15:56:12;5.50;99.90
28654;DHT22;24320;56.980;24.336;2022-11-15T15:58:39;5.50;99.90
28654;DHT22;24320;56.980;24.336;2022-11-15T16:01:06;5.50;99.90
28654;DHT22;24320;56.980;24.336;2022-11-15T16:03:33;5.60;99.90
28654;DHT22;24320;56.980;24.336;2022-11-15T16:06:00;5.60;99.90
28654;DHT22;24320;56.980;24.336;2022-11-15T16:08:27;5.60;99.90
28654;DHT22;24320;56.980;24.336;2022-11-15T16:11:14;5.60;99.90
28654;DHT22;24320;56.980;24.336;2022-11-15T16:13:41;5.60;99.90
28654;DHT22;24320;56.980;24.336;2022-11-15T16:16:09;5.50;99.90
28654;DHT22;24320;56.980;24.336;2022-11-15T16:18:39;5.50;99.90
28654;DHT22;24320;56.980;24.336;2022-11-15T16:21:07;5.40;99.90
28654;DHT22;24320;56.980;24.336;2022-11-15T16:23:34;5.40;99.90
28654;DHT22;24320;56.980;24.336;2022-11-15T16:26:01;5.30;99.90
28654;DHT22;24320;56.980;24.336;2022-11-15T16:28:31;5.20;99.90
28654;DHT22;24320;56.980;24.336;2022-11-15T16:31:10;5.10;99.90
28654;DHT22;24320;56.980;24.336;2022-11-15T16:33:38;5.10;99.90
28654;DHT22;24320;56.980;24.336;2022-11-15T16:36:24;5.10;99.90
28654;DHT22;24320;56.980;24.336;2022-11-15T16:38:57;5.10;99.90
28654;DHT22;24320;56.980;24.336;2022-11-15T16:41:24;5.00;99.90
28654;DHT22;24320;56.980;24.336;2022-11-15T16:43:51;4.90;99.90
28654;DHT22;24320;56.980;24.336;2022-11-15T16:46:20;4.90;99.90
28654;DHT22;24320;56.980;24.336;2022-11-15T16:48:48;4.90;99.90
28654;DHT22;24320;56.980;24.336;2022-11-15T16:51:15;4.80;99.90
28654;DHT22;24320;56.980;24.336;2022-11-15T16:53:43;4.80;99.90
28654;DHT22;24320;56.980;24.336;2022-11-15T16:58:46;4.70;99.90
28654;DHT22;24320;56.980;24.336;2022-11-15T17:01:18;4.70;99.90
28654;DHT22;24320;56.980;24.336;2022-11-15T17:03:45;4.50;99.90
28654;DHT22;24320;56.980;24.336;2022-11-15T17:06:13;4.50;99.90
28654;DHT22;24320;56.980;24.336;2022-11-15T17:08:41;4.50;99.90
28654;DHT22;24320;56.980;24.336;2022-11-15T17:11:08;4.40;99.90
28654;DHT22;24320;56.980;24.336;2022-11-15T17:13:35;4.40;99.90
28654;DHT22;24320;56.980;24.336;2022-11-15T17:16:14;4.40;99.90
28654;DHT22;24320;56.980;24.336;2022-11-15T17:18:42;4.30;99.90
28654;DHT22;24320;56.980;24.336;2022-11-15T17:21:14;4.30;99.90
28654;DHT22;24320;56.980;24.336;2022-11-15T17:23:42;4.20;99.90
28654;DHT22;24320;56.980;24.336;2022-11-15T17:26:11;4.20;99.90
28654;DHT22;24320;56.980;24.336;2022-11-15T17:28:55;4.10;99.90
28654;DHT22;24320;56.980;24.336;2022-11-15T17:31:22;4.10;99.90
28654;DHT22;24320;56.980;24.336;2022-11-15T17:33:51;4.00;99.90
28654;DHT22;24320;56.980;24.336;2022-11-15T17:36:18;4.00;99.90
28654;DHT22;24320;56.980;24.336;2022-11-15T17:38:45;3.90;99.90
28654;DHT22;24320;56.980;24.336;2022-11-15T17:41:15;3.90;99.90
28654;DHT22;24320;56.980;24.336;2022-11-15T17:43:42;3.80;99.90
28654;DHT22;24320;56.980;24.336;2022-11-15T17:46:18;3.80;99.90
28654;DHT22;24320;56.980;24.336;2022-11-15T17:48:47;3.70;99.90
28654;DHT22;24320;56.980;24.336;2022-11-15T17:51:16;3.70;99.90
28654;DHT22;24320;56.980;24.336;2022-11-15T17:53:44;3.70;99.90
28654;DHT22;24320;56.980;24.336;2022-11-15T17:56:18;3.70;99.90
28654;DHT22;24320;56.980;24.336;2022-11-15T17:58:50;3.70;99.90
28654;DHT22;24320;56.980;24.336;2022-11-15T18:01:25;3.60;99.90
28654;DHT22;24320;56.980;24.336;2022-11-15T18:03:54;3.60;99.90
28654;DHT22;24320;56.980;24.336;2022-11-15T18:06:22;3.60;99.90
28654;DHT22;24320;56.980;24.336;2022-11-15T18:08:51;3.50;99.90
28654;DHT22;24320;56.980;24.336;2022-11-15T18:11:23;3.50;99.90
28654;DHT22;24320;56.980;24.336;2022-11-15T18:13:52;3.50;99.90
28654;DHT22;24320;56.980;24.336;2022-11-15T18:16:23;3.50;99.90
28654;DHT22;24320;56.980;24.336;2022-11-15T18:18:52;3.50;99.90
28654;DHT22;24320;56.980;24.336;2022-11-15T18:21:22;3.50;99.90
28654;DHT22;24320;56.980;24.336;2022-11-15T18:23:53;3.50;99.90
28654;DHT22;24320;56.980;24.336;2022-11-15T18:26:21;3.50;99.90
28654;DHT22;24320;56.980;24.336;2022-11-15T18:28:54;3.50;99.90
28654;DHT22;24320;56.980;24.336;2022-11-15T18:31:24;3.50;99.90
28654;DHT22;24320;56.980;24.336;2022-11-15T18:33:52;3.50;99.90
28654;DHT22;24320;56.980;24.336;2022-11-15T18:36:24;3.50;99.90
28654;DHT22;24320;56.980;24.336;2022-11-15T18:39:00;3.50;99.90
28654;DHT22;24320;56.980;24.336;2022-11-15T18:41:28;3.50;99.90
28654;DHT22;24320;56.980;24.336;2022-11-15T18:43:58;3.50;99.90
28654;DHT22;24320;56.980;24.336;2022-11-15T18:46:28;3.50;99.90
28654;DHT22;24320;56.980;24.336;2022-11-15T18:48:58;3.50;99.90
28654;DHT22;24320;56.980;24.336;2022-11-15T18:51:27;3.60;99.90
28654;DHT22;24320;56.980;24.336;2022-11-15T18:54:01;3.50;99.90
28654;DHT22;24320;56.980;24.336;2022-11-15T18:56:30;3.50;99.90
28654;DHT22;24320;56.980;24.336;2022-11-15T18:59:00;3.50;99.90
28654;DHT22;24320;56.980;24.336;2022-11-15T19:01:36;3.50;99.90
28654;DHT22;24320;56.980;24.336;2022-11-15T19:04:10;3.40;99.90
28654;DHT22;24320;56.980;24.336;2022-11-15T19:06:39;3.30;99.90
28654;DHT22;24320;56.980;24.336;2022-11-15T19:09:08;3.30;99.90
28654;DHT22;24320;56.980;24.336;2022-11-15T19:11:37;3.30;99.90
28654;DHT22;24320;56.980;24.336;2022-11-15T19:14:08;3.30;99.90
28654;DHT22;24320;56.980;24.336;2022-11-15T19:16:40;3.30;99.90
28654;DHT22;24320;56.980;24.336;2022-11-15T19:19:13;3.30;99.90
28654;DHT22;24320;56.980;24.336;2022-11-15T19:21:43;3.30;99.90
28654;DHT22;24320;56.980;24.336;2022-11-15T19:24:13;3.30;99.90
28654;DHT22;24320;56.980;24.336;2022-11-15T19:26:41;3.30;99.90
28654;DHT22;24320;56.980;24.336;2022-11-15T19:29:09;3.30;99.90
28654;DHT22;24320;56.980;24.336;2022-11-15T19:31:36;3.30;99.90
28654;DHT22;24320;56.980;24.336;2022-11-15T19:34:05;3.30;99.90
28654;DHT22;24320;56.980;24.336;2022-11-15T19:36:49;3.20;99.90
28654;DHT22;24320;56.980;24.336;2022-11-15T19:39:16;3.10;99.90
28654;DHT22;24320;56.980;24.336;2022-11-15T19:41:44;3.10;99.90
28654;DHT22;24320;56.980;24.336;2022-11-15T19:44:12;3.10;99.90
28654;DHT22;24320;56.980;24.336;2022-11-15T19:46:40;3.10;99.90
28654;DHT22;24320;56.980;24.336;2022-11-15T19:49:08;3.20;99.90
28654;DHT22;24320;56.980;24.336;2022-11-15T19:51:37;3.20;99.90
28654;DHT22;24320;56.980;24.336;2022-11-15T19:54:05;3.30;99.90
28654;DHT22;24320;56.980;24.336;2022-11-15T19:56:34;3.30;99.90
28654;DHT22;24320;56.980;24.336;2022-11-15T19:59:02;3.30;99.90
28654;DHT22;24320;56.980;24.336;2022-11-15T20:01:32;3.40;99.90
28654;DHT22;24320;56.980;24.336;2022-11-15T20:04:02;3.30;99.90
28654;DHT22;24320;56.980;24.336;2022-11-15T20:06:34;3.30;99.90
28654;DHT22;24320;56.980;24.336;2022-11-15T20:09:02;3.40;99.90
28654;DHT22;24320;56.980;24.336;2022-11-15T20:11:29;3.40;99.90
28654;DHT22;24320;56.980;24.336;2022-11-15T20:13:58;3.40;99.90
28654;DHT22;24320;56.980;24.336;2022-11-15T20:16:26;3.40;99.90
28654;DHT22;24320;56.980;24.336;2022-11-15T20:18:53;3.40;99.90
28654;DHT22;24320;56.980;24.336;2022-11-15T20:21:20;3.40;99.90
28654;DHT22;24320;56.980;24.336;2022-11-15T20:23:47;3.30;99.90
28654;DHT22;24320;56.980;24.336;2022-11-15T20:26:20;3.40;99.90
28654;DHT22;24320;56.980;24.336;2022-11-15T20:28:47;3.40;99.90
28654;DHT22;24320;56.980;24.336;2022-11-15T20:31:15;3.40;99.90
28654;DHT22;24320;56.980;24.336;2022-11-15T20:33:42;3.40;99.90
28654;DHT22;24320;56.980;24.336;2022-11-15T20:36:12;3.40;99.90
28654;DHT22;24320;56.980;24.336;2022-11-15T20:38:40;3.30;99.90
28654;DHT22;24320;56.980;24.336;2022-11-15T20:41:09;3.30;99.90
28654;DHT22;24320;56.980;24.336;2022-11-15T20:43:36;3.20;99.90
28654;DHT22;24320;56.980;24.336;2022-11-15T20:46:03;3.10;99.90
28654;DHT22;24320;56.980;24.336;2022-11-15T20:48:30;3.10;99.90
28654;DHT22;24320;56.980;24.336;2022-11-15T20:51:10;3.10;99.90
28654;DHT22;24320;56.980;24.336;2022-11-15T20:53:38;3.10;99.90
28654;DHT22;24320;56.980;24.336;2022-11-15T20:56:26;3.10;99.90
28654;DHT22;24320;56.980;24.336;2022-11-15T20:58:53;3.20;99.90
28654;DHT22;24320;56.980;24.336;2022-11-15T21:01:20;3.20;99.90
28654;DHT22;24320;56.980;24.336;2022-11-15T21:03:51;3.10;99.90
28654;DHT22;24320;56.980;24.336;2022-11-15T21:06:19;3.10;99.90
28654;DHT22;24320;56.980;24.336;2022-11-15T21:08:48;3.20;99.90
28654;DHT22;24320;56.980;24.336;2022-11-15T21:11:33;3.20;99.90
28654;DHT22;24320;56.980;24.336;2022-11-15T21:14:19;3.20;99.90
28654;DHT22;24320;56.980;24.336;2022-11-15T21:16:46;3.10;99.90
28654;DHT22;24320;56.980;24.336;2022-11-15T21:19:13;3.00;99.90
28654;DHT22;24320;56.980;24.336;2022-11-15T21:21:40;3.00;99.90
28654;DHT22;24320;56.980;24.336;2022-11-15T21:24:08;2.90;99.90
28654;DHT22;24320;56.980;24.336;2022-11-15T21:26:36;2.90;99.90
28654;DHT22;24320;56.980;24.336;2022-11-15T21:29:03;2.80;99.90
28654;DHT22;24320;56.980;24.336;2022-11-15T21:31:30;2.70;99.90
28654;DHT22;24320;56.980;24.336;2022-11-15T21:34:00;2.80;99.90
28654;DHT22;24320;56.980;24.336;2022-11-15T21:36:28;2.80;99.90
28654;DHT22;24320;56.980;24.336;2022-11-15T21:38:55;2.70;99.90
28654;DHT22;24320;56.980;24.336;2022-11-15T21:41:22;2.70;99.90
28654;DHT22;24320;56.980;24.336;2022-11-15T21:43:49;2.70;99.90
28654;DHT22;24320;56.980;24.336;2022-11-15T21:46:16;2.70;99.90
28654;DHT22;24320;56.980;24.336;2022-11-15T21:48:43;2.70;99.90
28654;DHT22;24320;56.980;24.336;2022-11-15T21:51:10;2.60;99.90
28654;DHT22;24320;56.980;24.336;2022-11-15T21:53:37;2.60;99.90
28654;DHT22;24320;56.980;24.336;2022-11-15T21:56:05;2.50;99.90
28654;DHT22;24320;56.980;24.336;2022-11-15T21:58:32;2.50;99.90
28654;DHT22;24320;56.980;24.336;2022-11-15T22:01:00;2.40;99.90
28654;DHT22;24320;56.980;24.336;2022-11-15T22:03:45;2.40;99.90
28654;DHT22;24320;56.980;24.336;2022-11-15T22:06:12;2.30;99.90
28654;DHT22;24320;56.980;24.336;2022-11-15T22:08:44;2.30;99.90
28654;DHT22;24320;56.980;24.336;2022-11-15T22:11:13;2.20;99.90
28654;DHT22;24320;56.980;24.336;2022-11-15T22:13:40;2.10;99.90
28654;DHT22;24320;56.980;24.336;2022-11-15T22:16:08;2.10;99.90
28654;DHT22;24320;56.980;24.336;2022-11-15T22:18:35;2.00;99.90
28654;DHT22;24320;56.980;24.336;2022-11-15T22:21:09;2.10;99.90
28654;DHT22;24320;56.980;24.336;2022-11-15T22:23:37;2.00;99.90
28654;DHT22;24320;56.980;24.336;2022-11-15T22:26:05;2.00;99.90